KNYG/NYG METAR and TAF weather

Enter ICAO airport designator
Station Type Date Time Source
KNYG METAR 2020/01/26 00:56 UTC NOAA

KNYG 260056Z AUTO 30005KT 10SM OVC065 07/06 A2991 RMK AO2 SLP128 T00670056


Station Type Date Time Source
KNYG Decoded METAR 2020/01/26 00:56 UTC NOAA

QUANTICO MARINE CORPS AIRFAC, VA, United States (KNYG) 38-30N 077-18W 3M
Jan 25, 2020 - 07:56 PM EST / 2020.01.26 0056 UTC
Wind: from the WNW (300 degrees) at 6 MPH (5 KT):0
Visibility: 10 mile(s):0
Sky conditions: overcast
Temperature: 44.1 F (6.7 C)
Dew Point: 42.1 F (5.6 C)
Relative Humidity: 92%
Pressure (altimeter): 29.91 in. Hg (1012 hPa)
ob: KNYG 260056Z AUTO 30005KT 10SM OVC065 07/06 A2991 RMK AO2 SLP128 T00670056
cycle: 1

Station Type Date Time Source
KNYG TAF 2020/01/24 21:55 UTC NOAA

TAF KNYG 2421/2521 10008KT 9999 BKN015 OVC030 QNH3003INS
TEMPO 2421/2503 9000 RA BR OVC015
FM250400 14015G25KT 6000 RA BR OVC006 QNH2997INS
BECMG 2507/2509 16010KT 3200 +RA BR OVC004 QNH2978INS
TEMPO 2509/2514 16020G30KT 1600 +RA BR OVC002
FM251700 31012G20KT 9999 NSW BKN020 QNH2972INS T09/2415Z T13/2509Z

Example: see airport list